Strona główna
METAR-TAF:

METAR-TAF

Lotnisko :

Grayslake, Illinois, Stany Zjednoczone

Szerokość geograficzna: 42-19-29N, Długość geograficzna: 088-04-27W, wysokość: 240 m

Aktualna obserwacja pogody

Raport powstał 13 minut temu, godzina 09:55 UTC
Wiatr 3 kt od południe
Temperatura 25°C
Wilgotność 100%
Ciśnienie 1017 hPa
Widzialność: 16.1 km
bezchmurnie

METAR: KMBO 200955Z AUTO 19003KT 10SM CLR 25/25 A3003 RMK AO2 PWINO

czas: 05:08 (10:08 UTC)


TAF: brakujący

Obserwacja i prognoza pogody dla ponad 4000 lotnisk (raport METAR i TAF).

Dostępne stacje oznaczono żółtymi i czerwonymi punktami na mapie.

Najedź kursorem aby zobaczyć nazwę stacji.

Kliknij aby zobaczyć obserwacje i prognozy pogody.

Aby zmienić mapę: kliknij na zielony przycisk z czarnym krzyżykiem, aby powiększyć; na zielony przycisk z myślnikiem, aby pomniejszyć; na zielone strzałki, aby przejść do map sąsiednich.


METAR-TAF: